FMMI/TNR METAR and TAF weather

Enter ICAO airport designator
Station Type Date Time Source
FMMI METAR 2020/04/04 05:00 UTC NOAA

FMMI 040500Z 16007KT 130V190 9999 FEW017 BKN020 16/12 Q1020 NOSIG


Station Type Date Time Source
FMMI Decoded METAR 2020/04/04 05:00 UTC NOAA

Antananarivo / Ivato, Madagascar (FMMI) 18-48S 047-29E 1276M
Apr 04, 2020 - 01:00 AM EDT / 2020.04.04 0500 UTC
Wind: from the SSE (160 degrees) at 8 MPH (7 KT) (direction variable):0
Visibility: greater than 7 mile(s):0
Sky conditions: mostly cloudy
Temperature: 60 F (16 C)
Dew Point: 53 F (12 C)
Relative Humidity: 77%
Pressure (altimeter): 30.12 in. Hg (1020 hPa)
ob: FMMI 040500Z 16007KT 130V190 9999 FEW017 BKN020 16/12 Q1020 NOSIG
cycle: 5

Station Type Date Time Source
FMMI TAF 2020/04/04 06:06 UTC NOAA

TAF TAF FMMI 040500Z 0406/0512 16008KT 9999 FEW020 BKN023

Example: see airport list